Time;durP1;ratioP1;P1;durP2;ratioP2;P2;SDS_P1;SDS_P2;PMS_P1;PMS_P2;Temp;Humidity;BMP_temperature;BMP_pressure;BME280_temperature;BME280_humidity;BME280_pressure;Samples;Min_cycle;Max_cycle;Signal;HPM_P1;HPM_P2
2023/08/18 00:01:55;;;;;;;9.63;6.65;;;24.70;54.60;;;;;;5002927;28;114599;-80
2023/08/18 00:04:22;;;;;;;6.00;5.18;;;24.70;54.50;;;;;;5003404;28;114192;-80
2023/08/18 00:06:49;;;;;;;9.95;6.38;;;24.60;55.00;;;;;;5002482;28;114288;-80
2023/08/18 00:09:18;;;;;;;9.45;7.35;;;24.60;54.60;;;;;;5001813;28;115050;-79
2023/08/18 00:11:45;;;;;;;8.20;5.60;;;24.70;53.90;;;;;;5002604;28;114547;-80
2023/08/18 00:14:13;;;;;;;7.07;5.93;;;24.60;54.90;;;;;;5003250;28;114358;-79
2023/08/18 00:16:40;;;;;;;8.43;5.72;;;24.50;54.70;;;;;;5002384;28;114126;-80
2023/08/18 00:19:07;;;;;;;7.63;5.35;;;24.60;55.00;;;;;;5002555;28;114918;-79
2023/08/18 00:21:34;;;;;;;8.43;5.32;;;24.60;54.80;;;;;;5002529;28;114688;-79
2023/08/18 00:24:01;;;;;;;10.15;7.45;;;24.60;55.10;;;;;;5001218;28;114297;-79
2023/08/18 00:26:28;;;;;;;8.25;5.47;;;24.70;53.80;;;;;;5002228;28;114271;-80
2023/08/18 00:28:55;;;;;;;6.07;5.15;;;24.70;54.60;;;;;;5002147;28;115724;-80
2023/08/18 00:31:25;;;;;;;7.57;5.28;;;24.70;54.80;;;;;;4984734;28;115319;-80
2023/08/18 00:33:52;;;;;;;7.22;5.63;;;24.80;54.60;;;;;;4985183;28;114520;-82
2023/08/18 00:36:19;;;;;;;7.50;5.40;;;24.80;54.60;;;;;;5001524;28;114304;-79
2023/08/18 00:38:46;;;;;;;7.80;5.10;;;24.80;54.60;;;;;;5000727;28;114924;-79
2023/08/18 00:41:13;;;;;;;9.00;5.22;;;24.80;54.60;;;;;;5002227;28;114650;-80
2023/08/18 00:43:40;;;;;;;7.18;5.22;;;24.80;54.50;;;;;;4985243;28;114455;-80
2023/08/18 00:46:07;;;;;;;7.30;6.03;;;24.80;54.20;;;;;;5001796;28;114186;-79
2023/08/18 00:48:36;;;;;;;7.47;5.65;;;24.80;54.30;;;;;;5000532;28;114934;-79
2023/08/18 00:51:04;;;;;;;7.70;5.18;;;24.80;54.20;;;;;;5000539;28;114628;-79
2023/08/18 00:53:31;;;;;;;8.30;5.60;;;24.80;54.10;;;;;;5001456;28;114360;-79
2023/08/18 00:55:58;;;;;;;6.10;4.88;;;24.80;54.10;;;;;;5001579;28;114332;-79
2023/08/18 00:58:26;;;;;;;6.38;5.13;;;24.80;54.10;;;;;;5003100;28;116255;-80
2023/08/18 01:00:53;;;;;;;6.50;5.20;;;24.80;54.20;;;;;;4987568;28;114730;-79
2023/08/18 01:03:20;;;;;;;5.82;5.20;;;24.80;54.30;;;;;;4988475;28;114221;-79
2023/08/18 01:05:48;;;;;;;6.85;5.60;;;24.80;53.80;;;;;;5005034;28;114303;-80
2023/08/18 01:08:15;;;;;;;6.10;5.47;;;24.80;53.90;;;;;;5005062;28;114967;-79
2023/08/18 01:10:51;;;;;;;6.63;5.70;;;24.80;53.70;;;;;;5003730;28;116664;-80
2023/08/18 01:13:57;;;;;;;7.10;5.57;;;24.80;53.40;;;;;;4987793;28;114233;-80
2023/08/18 01:16:27;;;;;;;9.00;5.22;;;24.80;53.70;;;;;;4983338;28;114313;-79
2023/08/18 01:18:54;;;;;;;7.13;5.50;;;24.70;53.90;;;;;;5003591;28;117335;-78
2023/08/18 01:21:22;;;;;;;7.60;5.18;;;24.60;53.40;;;;;;5005306;28;115050;-80
2023/08/18 01:23:49;;;;;;;7.82;4.95;;;24.70;54.10;;;;;;4988235;28;114374;-79
2023/08/18 01:26:19;;;;;;;7.07;5.40;;;24.70;53.90;;;;;;5006930;28;114521;-79
2023/08/18 01:28:47;;;;;;;8.38;5.38;;;24.70;53.80;;;;;;4989137;28;116043;-80
2023/08/18 01:31:18;;;;;;;8.07;6.00;;;24.60;54.00;;;;;;5005409;28;114734;-80
2023/08/18 01:33:53;;;;;;;8.35;6.07;;;24.60;53.60;;;;;;4972435;28;114504;-80
2023/08/18 01:36:21;;;;;;;8.13;6.00;;;24.50;54.20;;;;;;4989252;28;114200;-80
2023/08/18 01:38:50;;;;;;;11.40;7.40;;;24.60;54.20;;;;;;5006367;28;115090;-79
2023/08/18 01:41:24;;;;;;;8.68;6.15;;;24.60;53.80;;;;;;5003971;28;114997;-80
2023/08/18 01:43:51;;;;;;;7.20;5.82;;;24.60;54.10;;;;;;4971801;28;114345;-80
2023/08/18 01:46:18;;;;;;;9.05;5.80;;;24.60;54.20;;;;;;4988224;28;114152;-80
2023/08/18 01:48:45;;;;;;;8.10;5.38;;;24.60;54.20;;;;;;4987222;28;116174;-80
2023/08/18 01:51:12;;;;;;;8.00;5.68;;;24.70;54.00;;;;;;5003540;28;114829;-80
2023/08/18 01:53:39;;;;;;;8.13;5.78;;;24.70;54.10;;;;;;4988047;28;114379;-80
2023/08/18 01:56:06;;;;;;;8.07;5.43;;;24.70;54.00;;;;;;5004782;28;114349;-81
2023/08/18 01:58:33;;;;;;;8.05;5.68;;;24.70;53.80;;;;;;4987491;28;117773;-80
2023/08/18 02:01:01;;;;;;;9.50;5.70;;;24.70;53.70;;;;;;5004007;28;114755;-80
2023/08/18 02:03:28;;;;;;;9.95;5.82;;;24.70;53.80;;;;;;5005128;28;114062;-80
2023/08/18 02:05:56;;;;;;;9.57;6.15;;;24.70;53.50;;;;;;4987730;28;114482;-81
2023/08/18 02:08:25;;;;;;;8.85;6.20;;;24.70;53.70;;;;;;4954724;28;115027;-80
2023/08/18 02:10:52;;;;;;;9.07;5.78;;;24.70;53.60;;;;;;4970727;28;114716;-80
2023/08/18 02:13:19;;;;;;;9.60;5.97;;;24.70;53.60;;;;;;5005408;28;114351;-80
2023/08/18 02:15:46;;;;;;;7.57;5.90;;;24.60;53.60;;;;;;5003772;28;114268;-80
2023/08/18 02:18:15;;;;;;;11.45;6.55;;;24.70;53.60;;;;;;5004215;28;116153;-80
2023/08/18 02:20:42;;;;;;;10.68;6.15;;;24.60;53.60;;;;;;5003412;28;114689;-79
2023/08/18 02:23:09;;;;;;;7.88;5.78;;;24.60;53.70;;;;;;5005146;28;114402;-80
2023/08/18 02:25:36;;;;;;;8.63;6.25;;;24.60;53.60;;;;;;5003938;28;114280;-80
2023/08/18 02:28:03;;;;;;;7.25;5.70;;;24.60;53.70;;;;;;5002557;28;114900;-80
2023/08/18 02:30:30;;;;;;;8.60;5.57;;;24.60;53.80;;;;;;5002863;28;115119;-80
2023/08/18 02:32:58;;;;;;;8.63;6.43;;;24.50;53.80;;;;;;5005079;28;114315;-80
2023/08/18 02:35:25;;;;;;;7.32;6.10;;;24.60;53.30;;;;;;5004893;28;114536;-80
2023/08/18 02:37:52;;;;;;;8.52;5.47;;;24.50;53.90;;;;;;5004184;28;116788;-80
2023/08/18 02:40:19;;;;;;;7.82;6.15;;;24.50;53.50;;;;;;5003666;28;114630;-81
2023/08/18 02:42:46;;;;;;;8.57;6.13;;;24.50;53.80;;;;;;5004774;28;114271;-80
2023/08/18 02:45:13;;;;;;;7.45;6.20;;;24.40;53.80;;;;;;5005215;28;114127;-80
2023/08/18 02:47:41;;;;;;;8.43;5.80;;;24.40;52.80;;;;;;5002961;28;114898;-80
2023/08/18 02:50:08;;;;;;;7.55;6.20;;;24.20;54.00;;;;;;5002646;28;114570;-80
2023/08/18 02:52:35;;;;;;;8.15;5.88;;;24.10;53.70;;;;;;5004168;28;114197;-80
2023/08/18 02:55:02;;;;;;;8.40;5.90;;;24.00;53.60;;;;;;5004213;28;114652;-80
2023/08/18 02:57:29;;;;;;;6.75;5.10;;;23.90;54.80;;;;;;5003426;28;115955;-80
2023/08/18 02:59:57;;;;;;;8.02;5.97;;;23.80;55.20;;;;;;5002300;28;114902;-80
2023/08/18 03:02:24;;;;;;;8.20;5.97;;;23.90;55.00;;;;;;5003284;28;114281;-80
2023/08/18 03:04:51;;;;;;;9.80;5.63;;;24.00;54.70;;;;;;5003196;28;114341;-80
2023/08/18 03:07:19;;;;;;;7.28;6.30;;;24.10;54.70;;;;;;4985693;28;114949;-80
2023/08/18 03:09:45;;;;;;;8.35;5.97;;;24.10;54.40;;;;;;4986276;28;114749;-80
2023/08/18 03:12:13;;;;;;;7.28;5.82;;;24.20;54.30;;;;;;5002751;28;114342;-80
2023/08/18 03:14:40;;;;;;;8.32;5.90;;;24.20;54.20;;;;;;5004080;28;114280;-80
2023/08/18 03:17:07;;;;;;;7.25;5.43;;;24.20;54.00;;;;;;5001450;28;114985;-80
2023/08/18 03:19:34;;;;;;;8.07;5.53;;;24.30;54.20;;;;;;5003338;28;115063;-80
2023/08/18 03:22:01;;;;;;;6.68;5.95;;;24.30;53.90;;;;;;5001422;28;114196;-80
2023/08/18 03:24:28;;;;;;;7.72;5.47;;;24.30;53.40;;;;;;5002743;28;114177;-80
2023/08/18 03:26:56;;;;;;;7.57;5.40;;;24.30;53.70;;;;;;5003285;28;115020;-80
2023/08/18 03:29:23;;;;;;;7.35;5.40;;;24.30;54.00;;;;;;5002119;28;114979;-80
2023/08/18 03:31:51;;;;;;;6.65;5.32;;;24.30;53.50;;;;;;5002805;28;114381;-80
2023/08/18 03:34:18;;;;;;;8.98;5.85;;;24.30;54.00;;;;;;5003157;28;114162;-80
2023/08/18 03:36:46;;;;;;;7.43;5.85;;;24.30;53.60;;;;;;5002839;28;116178;-80
2023/08/18 03:39:13;;;;;;;9.40;5.85;;;24.30;53.50;;;;;;5001711;28;114573;-80
2023/08/18 03:41:40;;;;;;;7.63;5.80;;;24.30;53.60;;;;;;5001619;28;114373;-80
2023/08/18 03:44:08;;;;;;;6.78;5.00;;;24.30;53.90;;;;;;4969754;28;114317;-80
2023/08/18 03:46:35;;;;;;;9.52;6.63;;;24.30;53.90;;;;;;5001680;28;115329;-80
2023/08/18 03:49:05;;;;;;;7.25;5.22;;;24.30;53.30;;;;;;5001744;28;114959;-80
2023/08/18 03:51:33;;;;;;;7.50;5.28;;;24.30;53.50;;;;;;4986363;28;114087;-80
2023/08/18 03:54:00;;;;;;;7.05;5.00;;;24.30;53.50;;;;;;4986014;28;114351;-80
2023/08/18 03:56:27;;;;;;;8.82;5.57;;;24.30;53.70;;;;;;4985565;28;114885;-80
2023/08/18 03:58:54;;;;;;;7.15;5.88;;;24.30;53.20;;;;;;5005896;28;114754;-80
2023/08/18 04:01:21;;;;;;;7.07;6.22;;;24.40;53.30;;;;;;5005317;28;114539;-80
2023/08/18 04:03:50;;;;;;;9.25;5.80;;;24.40;52.80;;;;;;4984889;28;114383;-80
2023/08/18 04:06:17;;;;;;;7.47;6.68;;;24.40;53.10;;;;;;4984745;28;115527;-80
2023/08/18 04:08:44;;;;;;;9.60;7.03;;;24.40;52.60;;;;;;5003096;28;114606;-80
2023/08/18 04:11:11;;;;;;;6.95;5.13;;;24.40;52.50;;;;;;5006293;28;114665;-81
2023/08/18 04:13:39;;;;;;;7.15;5.07;;;24.50;53.10;;;;;;4987470;28;114157;-80
2023/08/18 04:16:09;;;;;;;10.02;7.07;;;24.60;53.10;;;;;;4985409;28;114886;-80
2023/08/18 04:18:38;;;;;;;8.75;5.53;;;24.70;51.70;;;;;;4985524;28;114229;-80
2023/08/18 04:21:05;;;;;;;8.68;5.10;;;24.70;52.60;;;;;;5004115;28;114211;-81
2023/08/18 04:23:32;;;;;;;9.65;5.75;;;24.70;52.20;;;;;;5004516;28;114303;-80
2023/08/18 04:26:00;;;;;;;9.13;6.35;;;24.80;51.60;;;;;;4984967;28;114562;-80
2023/08/18 04:28:27;;;;;;;6.40;5.28;;;24.80;51.40;;;;;;4984702;28;115932;-81
2023/08/18 04:30:54;;;;;;;8.20;6.00;;;24.80;52.10;;;;;;4968980;28;114271;-80
2023/08/18 04:33:36;;;;;;;6.82;5.10;;;24.90;51.20;;;;;;5005404;28;114316;-80
2023/08/18 04:36:04;;;;;;;7.22;6.15;;;24.90;51.50;;;;;;5004820;28;114359;-80
2023/08/18 04:38:31;;;;;;;7.30;5.45;;;25.00;50.90;;;;;;4988069;28;114566;-81
2023/08/18 04:41:01;;;;;;;7.57;6.07;;;25.00;51.20;;;;;;4988746;28;115797;-81
2023/08/18 04:43:29;;;;;;;7.22;6.47;;;25.00;50.70;;;;;;4989172;28;114260;-80
2023/08/18 04:45:57;;;;;;;6.40;5.40;;;25.10;50.90;;;;;;5004596;28;115328;-80
2023/08/18 04:48:24;;;;;;;7.88;6.88;;;25.10;51.00;;;;;;4988549;28;114659;-81
2023/08/18 04:50:52;;;;;;;7.05;5.70;;;25.20;50.30;;;;;;5005067;28;114288;-81
2023/08/18 04:53:19;;;;;;;10.18;7.05;;;25.20;50.80;;;;;;5005074;28;114664;-81
2023/08/18 04:55:46;;;;;;;8.32;7.00;;;25.20;49.90;;;;;;5004073;28;115542;-79
2023/08/18 04:58:15;;;;;;;11.23;7.10;;;25.20;50.30;;;;;;4988491;28;114537;-80
2023/08/18 05:00:42;;;;;;;11.43;7.47;;;25.10;50.30;;;;;;5005158;28;114163;-80
2023/08/18 05:03:10;;;;;;;9.80;7.47;;;25.20;50.10;;;;;;5005208;28;114101;-80
2023/08/18 05:05:40;;;;;;;10.38;7.63;;;25.30;49.90;;;;;;5004138;28;115041;-78
2023/08/18 05:08:07;;;;;;;11.20;8.27;;;25.30;49.80;;;;;;4988170;28;114819;-79
2023/08/18 05:10:35;;;;;;;13.10;7.90;;;25.20;49.90;;;;;;5004815;28;114298;-79
2023/08/18 05:13:03;;;;;;;8.52;7.65;;;25.10;49.80;;;;;;5005184;28;114313;-80
2023/08/18 05:15:30;;;;;;;9.07;8.02;;;25.00;50.10;;;;;;5004105;28;114826;-79
2023/08/18 05:17:57;;;;;;;11.45;7.50;;;25.00;50.10;;;;;;4987530;28;116005;-79
2023/08/18 05:20:24;;;;;;;10.25;7.93;;;25.00;50.70;;;;;;5004194;28;114145;-80
2023/08/18 05:22:51;;;;;;;9.65;7.68;;;25.00;50.30;;;;;;5005933;28;114204;-79
2023/08/18 05:25:18;;;;;;;12.57;8.35;;;25.00;50.40;;;;;;5004040;28;114855;-81
2023/08/18 05:27:46;;;;;;;10.45;7.30;;;25.10;50.20;;;;;;4987343;28;116559;-81
2023/08/18 05:30:14;;;;;;;10.25;7.22;;;25.10;50.50;;;;;;5005479;28;114299;-80
2023/08/18 05:32:41;;;;;;;13.32;8.02;;;25.20;50.60;;;;;;5005990;28;114047;-79
2023/08/18 05:35:11;;;;;;;11.18;7.63;;;25.30;50.00;;;;;;5005069;28;115267;-80
2023/08/18 05:37:40;;;;;;;10.15;7.40;;;25.30;50.00;;;;;;5005261;28;114902;-80
2023/08/18 05:40:08;;;;;;;8.82;7.70;;;25.30;50.00;;;;;;5004956;28;114119;-79
2023/08/18 05:42:35;;;;;;;10.73;7.20;;;25.40;49.90;;;;;;4971039;28;114279;-79
2023/08/18 05:45:02;;;;;;;9.63;7.18;;;25.40;49.60;;;;;;5003323;28;114924;-81
2023/08/18 05:47:29;;;;;;;8.55;7.20;;;25.50;49.60;;;;;;5005021;28;114813;-81
2023/08/18 05:49:57;;;;;;;10.35;7.38;;;25.60;49.70;;;;;;5004314;28;114176;-81
2023/08/18 05:52:24;;;;;;;8.13;6.53;;;25.70;49.60;;;;;;5004242;28;114114;-80
2023/08/18 05:54:51;;;;;;;9.90;7.13;;;25.80;49.60;;;;;;5003584;28;115177;-81
2023/08/18 05:57:18;;;;;;;13.23;7.55;;;25.80;49.40;;;;;;5004653;28;114637;-79
2023/08/18 05:59:48;;;;;;;10.82;8.55;;;25.80;49.40;;;;;;5004978;28;114302;-80
2023/08/18 06:02:16;;;;;;;10.13;7.80;;;25.90;49.10;;;;;;5005522;28;114187;-79
2023/08/18 06:04:43;;;;;;;11.82;7.78;;;26.00;49.10;;;;;;5004203;28;115246;-79
2023/08/18 06:07:11;;;;;;;10.88;7.95;;;26.10;48.90;;;;;;5004571;28;114569;-80
2023/08/18 06:09:38;;;;;;;9.07;7.07;;;26.10;48.90;;;;;;5004390;28;114411;-80
2023/08/18 06:12:06;;;;;;;8.80;6.95;;;26.20;48.90;;;;;;5005060;28;114221;-80
2023/08/18 06:14:33;;;;;;;10.18;7.30;;;26.30;48.90;;;;;;5004167;28;114948;-81
2023/08/18 06:17:00;;;;;;;9.05;7.15;;;26.30;48.80;;;;;;5004307;28;114590;-81
2023/08/18 06:19:27;;;;;;;9.55;6.97;;;26.30;48.80;;;;;;4971099;28;114261;-80
2023/08/18 06:21:54;;;;;;;11.65;7.78;;;26.20;48.90;;;;;;5003993;28;114293;-80
2023/08/18 06:24:21;;;;;;;9.40;6.90;;;26.20;49.00;;;;;;5002815;28;114928;-81
2023/08/18 06:26:49;;;;;;;7.85;6.28;;;26.20;49.10;;;;;;5002918;28;115288;-81
2023/08/18 06:29:16;;;;;;;9.13;7.13;;;26.10;49.30;;;;;;5004820;28;114060;-79
2023/08/18 06:31:43;;;;;;;11.82;7.93;;;26.20;49.30;;;;;;5003851;28;114273;-79
2023/08/18 06:34:12;;;;;;;9.60;8.25;;;26.20;49.40;;;;;;5004269;28;116284;-80
2023/08/18 06:36:39;;;;;;;12.20;8.52;;;26.20;49.40;;;;;;5004157;28;115930;-80
2023/08/18 06:39:06;;;;;;;8.98;6.97;;;26.30;49.20;;;;;;5004774;28;114305;-81
2023/08/18 06:41:36;;;;;;;13.35;9.15;;;26.30;49.20;;;;;;5003154;28;114283;-81
2023/08/18 06:44:04;;;;;;;10.27;8.38;;;26.30;49.10;;;;;;4986449;28;114793;-79
2023/08/18 06:46:31;;;;;;;11.50;7.28;;;26.20;49.50;;;;;;5003874;28;114649;-79
2023/08/18 06:48:58;;;;;;;10.73;7.85;;;26.10;49.70;;;;;;5008774;28;114203;-79
2023/08/18 06:51:25;;;;;;;11.32;9.27;;;26.00;50.00;;;;;;5006558;28;114437;-80
2023/08/18 06:53:52;;;;;;;9.98;8.00;;;25.90;50.40;;;;;;5003969;28;116287;-80
2023/08/18 06:56:19;;;;;;;11.27;8.18;;;25.80;50.80;;;;;;5003681;28;114860;-81
2023/08/18 06:58:46;;;;;;;11.05;8.55;;;25.70;51.40;;;;;;5004050;28;114265;-80
2023/08/18 07:01:14;;;;;;;12.50;8.52;;;25.80;51.40;;;;;;5003766;28;114950;-80
2023/08/18 07:03:41;;;;;;;12.07;9.82;;;25.80;51.70;;;;;;5004184;28;114910;-78
2023/08/18 07:06:09;;;;;;;11.77;10.32;;;25.80;51.80;;;;;;5004270;28;115509;-79
2023/08/18 07:08:36;;;;;;;13.40;9.85;;;25.90;52.10;;;;;;5003253;28;114219;-79
2023/08/18 07:11:03;;;;;;;13.30;10.13;;;26.10;51.90;;;;;;5004733;28;114308;-80
2023/08/18 07:13:30;;;;;;;12.02;9.57;;;26.20;51.90;;;;;;5002257;28;114950;-79
2023/08/18 07:15:57;;;;;;;15.38;10.25;;;26.20;51.60;;;;;;5003728;28;114639;-79
2023/08/18 07:18:24;;;;;;;11.82;9.30;;;26.20;51.90;;;;;;5004128;28;114180;-79
2023/08/18 07:20:53;;;;;;;11.45;8.68;;;26.20;52.00;;;;;;5004089;28;114591;-79
2023/08/18 07:23:20;;;;;;;13.10;9.48;;;26.10;51.60;;;;;;4984968;28;114815;-80
2023/08/18 07:25:47;;;;;;;9.88;8.98;;;26.00;52.40;;;;;;5003791;28;114657;-79
2023/08/18 07:28:14;;;;;;;11.75;10.50;;;25.90;52.40;;;;;;5003487;28;114398;-79
2023/08/18 07:30:46;;;;;;;12.20;10.68;;;25.90;52.80;;;;;;4988079;28;114146;-80
2023/08/18 07:33:13;;;;;;;13.75;11.63;;;26.00;52.80;;;;;;5002672;28;115004;-80
2023/08/18 07:35:40;;;;;;;14.48;10.20;;;26.10;52.50;;;;;;5002076;28;116021;-79
2023/08/18 07:38:07;;;;;;;14.00;11.20;;;26.20;52.40;;;;;;5004040;28;114130;-80
2023/08/18 07:40:35;;;;;;;13.10;9.00;;;26.20;51.90;;;;;;5003403;28;114257;-80
2023/08/18 07:43:03;;;;;;;9.82;8.27;;;26.30;52.10;;;;;;5002683;28;115539;-81
2023/08/18 07:45:32;;;;;;;12.57;8.63;;;26.30;51.50;;;;;;5002781;28;114568;-80
2023/08/18 07:48:00;;;;;;;11.60;9.85;;;26.30;51.40;;;;;;5003343;28;114225;-80
2023/08/18 07:50:27;;;;;;;10.60;9.27;;;26.30;51.90;;;;;;5003630;28;114250;-80
2023/08/18 07:52:55;;;;;;;10.57;8.38;;;26.30;52.20;;;;;;5001906;28;115459;-80
2023/08/18 07:55:22;;;;;;;11.07;9.77;;;26.30;52.60;;;;;;4984966;28;118147;-79
2023/08/18 07:57:49;;;;;;;10.70;8.25;;;26.30;52.50;;;;;;5003276;28;114407;-79
2023/08/18 08:00:19;;;;;;;10.75;9.40;;;26.30;51.90;;;;;;5003361;28;114364;-81
2023/08/18 08:02:47;;;;;;;12.85;9.10;;;26.30;52.40;;;;;;5001396;28;116685;-81
2023/08/18 08:05:17;;;;;;;12.70;10.00;;;26.30;52.40;;;;;;5003289;28;114795;-79
2023/08/18 08:07:44;;;;;;;12.30;9.80;;;26.30;52.50;;;;;;5008429;28;114290;-79
2023/08/18 08:10:12;;;;;;;13.13;10.23;;;26.30;52.70;;;;;;5009081;28;114179;-79
2023/08/18 08:12:40;;;;;;;13.90;9.93;;;26.20;52.50;;;;;;5007609;28;115173;-79
2023/08/18 08:15:08;;;;;;;11.35;8.98;;;26.20;52.90;;;;;;5008976;28;114654;-79
2023/08/18 08:17:35;;;;;;;12.73;10.60;;;26.20;52.90;;;;;;5010189;28;114202;-79
2023/08/18 08:20:07;;;;;;;14.15;10.18;;;26.20;53.30;;;;;;4992613;28;114297;-78
2023/08/18 08:22:34;;;;;;;12.20;9.60;;;26.30;53.30;;;;;;5007980;28;116456;-79
2023/08/18 08:25:01;;;;;;;10.32;9.18;;;26.40;53.30;;;;;;4974959;28;114531;-80
2023/08/18 08:27:28;;;;;;;14.82;11.07;;;26.50;52.80;;;;;;5009934;28;114366;-80
2023/08/18 08:29:55;;;;;;;9.98;8.98;;;26.50;51.90;;;;;;5008937;28;114233;-79
2023/08/18 08:32:27;;;;;;;14.63;11.18;;;26.50;51.70;;;;;;4976019;28;115123;-78
2023/08/18 08:34:58;;;;;;;12.50;10.80;;;26.50;52.20;;;;;;5007685;28;116295;-80
2023/08/18 08:37:25;;;;;;;12.90;11.60;;;26.50;52.60;;;;;;5008034;28;114257;-79
2023/08/18 08:39:52;;;;;;;13.65;11.32;;;26.50;52.20;;;;;;5008528;28;114224;-80
2023/08/18 08:42:19;;;;;;;12.05;10.70;;;26.50;52.30;;;;;;5008503;28;115265;-79
2023/08/18 08:44:46;;;;;;;10.98;9.88;;;26.40;52.30;;;;;;5008905;28;114665;-79
2023/08/18 08:47:17;;;;;;;10.93;9.68;;;26.40;52.50;;;;;;5008400;28;114215;-80
2023/08/18 08:49:45;;;;;;;10.93;9.85;;;26.40;52.50;;;;;;5008164;28;114512;-79
2023/08/18 08:52:16;;;;;;;12.82;10.27;;;26.40;51.90;;;;;;5007487;28;114964;-80
2023/08/18 08:54:58;;;;;;;11.32;10.07;;;26.40;52.30;;;;;;5007656;28;116058;-80
2023/08/18 08:57:25;;;;;;;13.73;11.20;;;26.50;52.00;;;;;;5008409;28;114303;-80
2023/08/18 08:59:52;;;;;;;13.88;10.75;;;26.60;52.70;;;;;;5009530;28;114380;-81
2023/08/18 09:02:20;;;;;;;10.68;9.48;;;26.70;52.70;;;;;;5006904;28;114816;-80
2023/08/18 09:04:47;;;;;;;11.68;10.07;;;26.80;52.30;;;;;;5008362;28;115174;-80
2023/08/18 09:07:14;;;;;;;10.27;9.25;;;26.80;51.70;;;;;;5008028;28;114465;-80
2023/08/18 09:09:45;;;;;;;11.15;10.00;;;26.90;51.70;;;;;;5008211;28;114323;-80
2023/08/18 09:12:12;;;;;;;10.38;9.25;;;27.10;51.80;;;;;;4991391;28;114936;-80
2023/08/18 09:14:40;;;;;;;11.85;8.77;;;27.30;51.80;;;;;;4990551;28;117491;-80
2023/08/18 09:17:07;;;;;;;11.50;9.43;;;27.40;50.40;;;;;;4991701;28;114225;-80
2023/08/18 09:19:34;;;;;;;10.18;9.05;;;27.50;50.00;;;;;;5006107;28;114675;-80
2023/08/18 09:22:03;;;;;;;11.90;9.20;;;27.50;50.00;;;;;;5006915;28;114928;-79
2023/08/18 09:24:32;;;;;;;10.15;8.68;;;27.50;50.10;;;;;;5008938;28;114826;-79
2023/08/18 09:27:09;;;;;;;11.82;9.00;;;27.40;50.30;;;;;;5006658;28;114240;-80
2023/08/18 09:29:36;;;;;;;10.38;8.98;;;27.30;50.50;;;;;;5005147;28;114256;-79
2023/08/18 09:32:04;;;;;;;11.32;10.05;;;27.20;50.40;;;;;;5005678;28;115241;-81
2023/08/18 09:34:38;;;;;;;11.63;8.90;;;27.10;51.20;;;;;;4989310;28;114738;-80
2023/08/18 09:37:05;;;;;;;11.93;8.75;;;27.10;49.90;;;;;;5008496;28;114275;-80
2023/08/18 09:39:32;;;;;;;9.73;8.60;;;27.00;50.40;;;;;;5006168;28;114431;-80
2023/08/18 09:42:05;;;;;;;11.35;9.35;;;27.00;50.60;;;;;;5003602;28;114860;-80
2023/08/18 09:44:33;;;;;;;12.15;8.20;;;27.00;51.00;;;;;;4987957;28;114609;-80
2023/08/18 09:47:03;;;;;;;11.35;9.32;;;27.00;51.20;;;;;;5004719;28;114143;-80
2023/08/18 09:49:33;;;;;;;11.90;8.95;;;27.10;51.10;;;;;;4988384;28;114289;-80
2023/08/18 09:52:05;;;;;;;9.57;8.35;;;27.10;51.10;;;;;;4986551;28;116015;-79
2023/08/18 09:55:03;;;;;;;13.05;8.95;;;27.10;50.80;;;;;;5003525;28;115230;-79
2023/08/18 09:57:36;;;;;;;9.38;8.43;;;27.20;50.90;;;;;;4999600;28;114610;-79
2023/08/18 10:00:04;;;;;;;10.35;8.43;;;27.20;51.10;;;;;;5005704;28;114120;-80
2023/08/18 10:02:36;;;;;;;10.85;8.70;;;27.20;50.70;;;;;;4987960;28;115463;-80
2023/08/18 10:05:04;;;;;;;11.35;8.82;;;27.30;50.60;;;;;;4970625;28;114488;-80
2023/08/18 10:07:32;;;;;;;10.15;8.20;;;27.20;50.00;;;;;;5005655;28;114099;-80
2023/08/18 10:09:59;;;;;;;9.70;8.60;;;27.20;50.10;;;;;;4988106;28;114141;-80
2023/08/18 10:12:29;;;;;;;9.50;8.52;;;27.20;50.50;;;;;;5004664;28;114798;-80
2023/08/18 10:14:57;;;;;;;10.65;9.57;;;27.30;50.80;;;;;;5003889;28;115988;-78
2023/08/18 10:17:24;;;;;;;10.75;8.73;;;27.20;51.00;;;;;;4987362;28;114260;-79
2023/08/18 10:19:55;;;;;;;8.82;7.93;;;27.20;51.30;;;;;;5004345;28;114455;-79
2023/08/18 10:22:26;;;;;;;9.85;8.75;;;27.20;51.50;;;;;;5002921;28;116358;-79
2023/08/18 10:24:54;;;;;;;10.35;8.70;;;27.30;51.50;;;;;;4987239;28;116553;-80
2023/08/18 10:27:27;;;;;;;11.38;8.57;;;27.30;51.30;;;;;;4987143;28;114061;-79
2023/08/18 10:29:57;;;;;;;11.20;8.38;;;27.30;51.70;;;;;;5004497;28;114058;-79
2023/08/18 10:32:24;;;;;;;8.55;7.68;;;27.40;51.90;;;;;;5003025;28;116174;-80
2023/08/18 10:34:51;;;;;;;10.73;8.23;;;27.50;50.70;;;;;;5004426;28;114618;-79
2023/08/18 10:37:22;;;;;;;10.02;7.88;;;27.60;50.70;;;;;;5003347;28;114343;-80
2023/08/18 10:39:52;;;;;;;10.18;7.65;;;27.70;50.20;;;;;;5003436;28;114558;-79
2023/08/18 10:42:19;;;;;;;9.27;8.00;;;27.70;49.50;;;;;;5001628;28;116190;-80
2023/08/18 10:45:01;;;;;;;9.38;7.80;;;27.70;49.60;;;;;;4985857;28;114863;-80
2023/08/18 10:47:31;;;;;;;10.05;7.80;;;27.80;49.90;;;;;;5003269;28;114362;-79
2023/08/18 10:49:59;;;;;;;10.98;7.43;;;27.80;49.90;;;;;;5004433;28;114122;-81
2023/08/18 10:52:27;;;;;;;9.15;7.28;;;27.90;49.40;;;;;;5002513;28;115482;-80
2023/08/18 10:54:55;;;;;;;9.68;6.70;;;28.10;48.90;;;;;;5003539;28;114827;-79
2023/08/18 10:57:23;;;;;;;7.78;6.88;;;28.20;48.00;;;;;;5004349;28;114355;-80
2023/08/18 10:59:50;;;;;;;9.55;6.75;;;28.40;47.40;;;;;;5003382;28;114273;-81
2023/08/18 11:02:17;;;;;;;9.18;6.70;;;28.50;46.60;;;;;;5002252;28;114897;-80
2023/08/18 11:04:46;;;;;;;8.45;6.60;;;28.60;46.30;;;;;;5003432;28;114735;-79
2023/08/18 11:07:13;;;;;;;8.02;7.07;;;28.60;46.20;;;;;;4986189;28;114508;-80
2023/08/18 11:09:40;;;;;;;9.27;6.47;;;28.60;46.40;;;;;;5003776;28;114670;-80
2023/08/18 11:12:08;;;;;;;7.38;6.57;;;28.70;45.80;;;;;;5002167;28;114984;-81
2023/08/18 11:14:37;;;;;;;9.07;6.40;;;28.70;45.70;;;;;;4985266;28;116723;-80
2023/08/18 11:17:04;;;;;;;8.13;6.82;;;28.80;45.70;;;;;;5003781;28;114461;-80
2023/08/18 11:19:31;;;;;;;7.90;7.10;;;28.90;45.90;;;;;;4986615;28;114437;-80
2023/08/18 11:21:58;;;;;;;7.05;6.35;;;29.00;44.90;;;;;;5002052;28;115124;-78
2023/08/18 11:24:25;;;;;;;7.07;6.15;;;29.10;44.90;;;;;;5003394;28;114694;-80
2023/08/18 11:26:53;;;;;;;6.82;5.55;;;29.20;44.50;;;;;;5002787;28;114058;-80
2023/08/18 11:29:20;;;;;;;6.88;5.85;;;29.30;43.00;;;;;;5002569;28;114920;-80
2023/08/18 11:31:47;;;;;;;6.47;5.65;;;29.30;43.10;;;;;;5001290;28;115087;-81
2023/08/18 11:34:15;;;;;;;7.10;6.40;;;29.30;43.60;;;;;;5002073;28;114728;-81
2023/08/18 11:36:44;;;;;;;8.73;6.63;;;29.40;43.40;;;;;;5002430;28;114226;-78
2023/08/18 11:39:12;;;;;;;8.60;6.80;;;29.40;43.40;;;;;;4986170;28;114416;-80
2023/08/18 11:41:42;;;;;;;7.18;6.32;;;29.40;43.60;;;;;;5001178;28;115065;-81
2023/08/18 11:44:10;;;;;;;8.50;7.00;;;29.50;43.90;;;;;;5001679;28;114565;-80
2023/08/18 11:46:42;;;;;;;9.15;7.38;;;29.50;43.30;;;;;;5003594;28;114765;-78
2023/08/18 11:49:15;;;;;;;10.52;7.05;;;29.50;43.70;;;;;;5002939;28;114405;-80
2023/08/18 11:52:13;;;;;;;7.97;6.75;;;29.50;43.20;;;;;;5002831;28;114816;-80
2023/08/18 11:54:42;;;;;;;8.88;5.93;;;29.50;43.60;;;;;;4993286;28;114771;-79
2023/08/18 11:57:13;;;;;;;9.57;6.60;;;29.50;43.00;;;;;;4985308;28;114286;-79
2023/08/18 11:59:46;;;;;;;8.65;5.80;;;29.50;43.10;;;;;;5002231;28;114271;-81
2023/08/18 12:02:18;;;;;;;6.95;6.07;;;29.40;43.30;;;;;;5002413;28;115104;-80
2023/08/18 12:04:45;;;;;;;7.33;6.50;;;29.30;43.30;;;;;;5002219;28;115488;-81
2023/08/18 12:07:12;;;;;;;7.35;5.75;;;29.20;42.90;;;;;;5001854;28;114392;-79
2023/08/18 12:09:39;;;;;;;7.18;6.03;;;29.20;43.10;;;;;;5002235;28;114339;-80
2023/08/18 12:12:16;;;;;;;7.68;5.80;;;29.10;42.20;;;;;;5002377;28;115062;-80
2023/08/18 12:14:43;;;;;;;6.15;5.22;;;29.20;42.30;;;;;;5002667;28;114633;-80
2023/08/18 12:17:23;;;;;;;6.32;5.10;;;29.20;42.50;;;;;;5003777;28;114292;-79
2023/08/18 12:19:53;;;;;;;5.60;4.97;;;29.30;41.90;;;;;;5002051;28;114352;-81
2023/08/18 12:22:20;;;;;;;7.40;5.32;;;29.20;41.60;;;;;;4968093;28;114867;-80
2023/08/18 12:24:47;;;;;;;6.15;5.22;;;29.10;41.80;;;;;;5002431;28;116347;-80
2023/08/18 12:27:14;;;;;;;6.63;5.53;;;29.10;42.40;;;;;;5002713;28;114492;-80
2023/08/18 12:29:41;;;;;;;7.65;5.43;;;29.10;42.40;;;;;;5003568;28;114324;-80
2023/08/18 12:32:11;;;;;;;8.80;5.60;;;29.20;42.10;;;;;;4985791;28;119740;-78
2023/08/18 12:34:41;;;;;;;6.05;5.40;;;29.10;41.90;;;;;;5003046;28;115916;-80
2023/08/18 12:37:08;;;;;;;6.95;5.80;;;29.10;42.30;;;;;;5003325;28;114175;-79
2023/08/18 12:39:36;;;;;;;6.93;6.18;;;29.10;42.50;;;;;;5007775;28;114379;-80